Latest Weather Observations for Browse Island

IDW60801

Issued at 1:33 pm WST Tuesday 10 December 2019 (issued every 10 minutes, with the page automatically refreshed every 10 minutes)

About weather observations | Map of weather stations | Latest weather observations for WA | Other Formats
Station Details ID: 200784 Name: BROWSE ISLAND Lat: -14.11 Lon: 123.55 Height: 3.7 m
Data from the previous 72 hours. | See also: Recent months at Browse Island
Date/Time
WST
Temp
°C
App
Temp
°C
Dew
Point
°C
Rel
Hum
%
Delta-T
°C
Wind Press
QNH
hPa
Press
MSL
hPa
Rain since
9am
mm
Dir  Spd
km/h
Gust
km/h
Spd
kts
Gust
kts
10/01:30pm 32.0 - - - - W 11 11 6 6 1008.0 - -
10/01:25pm 31.4 - - - - W 11 13 6 7 1008.3 1008.2 -
10/01:00pm 31.1 - - - - WNW 11 - 6 - 1008.0 1008.4 -
10/12:30pm 32.0 - - - - WNW 11 - 6 - 1008.0 - -
10/12:25pm 31.6 - - - - WNW 11 - 6 - - 1008.8 -
10/12:00pm 30.8 - - - - W 13 - 7 - 1009.0 1008.9 -
10/11:30am 31.0 - - - - W 15 - 8 - 1009.0 - -
10/11:25am 30.7 - - - - W 15 - 8 - - 1009.2 -
10/11:00am 30.6 - - - - W 13 - 7 - 1009.0 1009.4 -
10/10:30am 31.0 - - - - WSW 13 - 7 - 1010.0 - -
10/10:25am 30.5 - - - - WSW 13 - 7 - - 1010.0 -
10/10:00am 30.4 - - - - WSW 13 - 7 - 1010.0 1010.1 -
10/09:30am 30.0 - - - - WSW 17 - 9 - 1010.0 - -
10/09:25am 30.2 - - - - WSW 15 - 8 - - 1010.4 -
10/09:00am 30.5 - - - - SW 15 19 8 10 1010.7 1010.6 -
10/08:30am 30.0 - - - - SW 15 - 8 - 1011.0 - -
10/08:25am 30.4 - - - - WSW 13 - 7 - - 1010.9 -
10/08:00am 30.4 - - - - WSW 11 - 6 - 1011.0 1011.0 -
10/07:30am 30.0 - - - - WNW 9 - 5 - 1010.0 - -
10/07:25am 30.2 - - - - NW 11 - 6 - - 1010.3 -
10/07:00am 30.0 - - - - NNW 20 - 11 - 1009.0 1009.3 -
10/06:30am 30.0 - - - - NNW 17 - 9 - 1009.0 - -
10/06:25am 30.0 - - - - NNW 17 - 9 - - 1009.2 -
10/06:00am 30.1 - - - - NNW 19 - 10 - 1009.0 1009.2 -
10/05:30am 30.0 - - - - NNW 20 - 11 - 1008.0 - -
10/05:25am 30.1 - - - - NNW 20 - 11 - - 1008.6 -
10/05:00am 29.9 - - - - NNW 19 - 10 - 1008.0 1008.2 -
10/04:30am 30.0 - - - - NW 17 - 9 - 1008.0 - -
10/04:25am 30.0 - - - - NW 15 - 8 - - 1007.9 -
10/04:00am 29.9 - - - - NW 19 - 10 - 1007.0 1007.6 -
10/03:30am 30.0 - - - - NW 17 - 9 - 1007.0 - -
10/03:25am 30.0 - - - - NW 17 - 9 - - 1007.5 -
10/03:00am 30.1 - - - - WNW 22 - 12 - 1007.0 1007.3 -
10/02:30am 30.0 - - - - WNW 22 - 12 - 1007.0 - -
10/02:25am 30.0 - - - - WNW 22 - 12 - - 1006.9 -
10/02:00am 30.0 - - - - WNW 20 - 11 - 1007.0 1006.9 -
10/01:30am 30.0 - - - - W 17 - 9 - 1007.0 - -
10/01:25am 30.0 - - - - W 15 - 8 - - 1007.1 -
10/01:00am 29.9 - - - - WNW 15 - 8 - 1007.0 1007.3 -
10/12:30am 30.0 - - - - WNW 15 - 8 - 1007.0 - -
10/12:25am 30.1 - - - - WNW 15 - 8 - - 1007.5 -
10/12:00am 29.8 - - - - NW 11 - 6 - 1007.0 1007.8 -
 
Date/Time
WST
Temp
°C
App
Temp
°C
Dew
Point
°C
Rel
Hum
%
Delta-T
°C
Wind Press
QNH
hPa
Press
MSL
hPa
Rain since
9am
mm
Dir  Spd
km/h
Gust
km/h
Spd
kts
Gust
kts
09/11:30pm 30.0 - - - - N 9 - 5 - 1008.0 - -
09/11:25pm 29.7 - - - - N 9 - 5 - - 1008.4 -
09/11:00pm 29.7 - - - - ENE 13 - 7 - 1009.0 1009.0 -
09/10:30pm 30.0 - - - - ENE 15 - 8 - 1009.0 - -
09/10:25pm 30.0 - - - - NE 15 - 8 - - 1009.5 -
09/10:00pm 29.9 - - - - E 19 - 10 - 1010.0 1010.1 -
09/09:30pm 30.0 - - - - E 26 - 14 - 1010.0 - -
09/09:25pm 29.9 - - - - E 20 - 11 - - 1010.6 -
09/09:00pm 30.6 - - - - ESE 30 - 16 - 1011.0 1011.2 -
09/08:56pm 30.6 - - - - ESE 28 35 15 19 1011.4 1011.3 -
09/08:30pm 30.0 - - - - N 7 - 4 - 1010.0 - -
09/08:25pm 30.5 - - - - N 9 - 5 - - 1009.9 -
09/08:00pm 30.5 - - - - NNW 13 - 7 - 1009.0 1009.2 -
09/07:30pm 31.0 - - - - NW 13 - 7 - 1009.0 - -
09/07:25pm 30.4 - - - - NW 13 - 7 - - 1009.1 -
09/07:00pm 30.4 - - - - NW 9 - 5 - 1008.0 1008.8 -
09/06:30pm 31.0 - - - - NW 13 - 7 - 1008.0 - -
09/06:25pm 30.4 - - - - WNW 13 - 7 - - 1008.1 -
09/06:00pm 30.5 - - - - NW 17 - 9 - 1007.0 1007.6 -
09/05:30pm 31.0 - - - - NW 17 - 9 - 1007.0 - -
09/05:25pm 30.7 - - - - WNW 17 - 9 - - 1006.9 -
09/05:00pm 30.7 - - - - WNW 13 - 7 - 1007.0 1006.9 -
09/04:30pm 30.9 - - - - WNW 15 17 8 9 1007.1 1007.0 -
09/04:25pm 30.9 - - - - WNW 13 - 7 - - 1007.0 -
09/04:00pm 31.1 - - - - WNW 13 - 7 - 1007.0 1007.2 -
09/03:30pm 31.0 - - - - W 17 - 9 - 1007.0 - -
09/03:25pm 30.7 - - - - WNW 17 - 9 - - 1007.0 -
09/03:00pm 31.1 - - - - W 17 - 9 - 1007.0 1007.0 -
09/02:30pm 31.0 - - - - WNW 20 - 11 - 1007.0 - -
09/02:25pm 30.7 - - - - WNW 19 - 10 - - 1007.1 -
09/02:00pm 30.9 - - - - WNW 17 - 9 - 1007.0 1007.4 -
09/01:30pm 31.0 - - - - WNW 17 - 9 - 1008.0 - -
09/01:25pm 30.7 - - - - WNW 15 - 8 - - 1008.1 -
09/01:00pm 31.4 - - - - WNW 13 - 7 - 1008.0 1008.3 -
09/12:30pm 31.0 - - - - NW 11 - 6 - 1008.0 - -
09/12:25pm 31.0 - - - - NW 11 - 6 - - 1008.7 -
09/12:00pm 31.6 - - - - WNW 9 - 5 - 1009.0 1009.2 -
09/11:30am 31.0 - - - - W 9 - 5 - 1009.0 - -
09/11:25am 32.0 - - - - W 9 - 5 - - 1009.8 -
09/11:00am 31.0 - - - - W 11 - 6 - 1010.0 1010.1 -
09/10:30am 31.0 - - - - W 15 - 8 - 1010.0 - -
09/10:25am 31.0 - - - - W 15 - 8 - - 1010.3 -
09/10:00am 30.6 - - - - W 15 - 8 - 1010.0 1010.3 -
09/09:30am 30.0 - - - - WNW 15 - 8 - 1010.0 - -
09/09:25am 30.3 - - - - WNW 13 - 7 - - 1010.5 -
09/09:00am 30.5 - - - - NW 11 - 6 - 1010.0 1010.8 -
09/08:30am 31.0 - - - - NW 11 - 6 - 1010.0 - -
09/08:25am 30.7 - - - - NW 11 - 6 - - 1010.7 -
09/08:00am 30.5 - - - - NW 11 - 6 - 1010.0 1010.6 -
09/07:30am 30.0 - - - - NW 13 - 7 - 1010.0 - -
09/07:25am 30.2 - - - - NW 13 - 7 - - 1010.3 -
09/07:00am 30.1 - - - - NNW 9 - 5 - 1010.0 1010.4 -
09/06:30am 30.0 - - - - NNW 7 - 4 - 1010.0 - -
09/06:25am 30.1 - - - - NNW 7 - 4 - - 1010.2 -
09/06:00am 29.8 - - - - NW 13 - 7 - 1009.0 1009.6 -
09/05:30am 30.0 - - - - WNW 15 - 8 - 1009.0 - -
09/05:25am 29.8 - - - - WNW 15 - 8 - - 1008.9 -
09/05:00am 29.9 - - - - W 22 - 12 - 1008.0 1008.3 -
09/04:30am 30.0 - - - - W 19 - 10 - 1008.0 - -
09/04:25am 29.8 - - - - W 19 - 10 - - 1007.9 -
09/04:00am 30.0 - - - - WNW 15 - 8 - 1008.0 1007.9 -
09/03:30am 30.0 - - - - WNW 11 - 6 - 1007.0 - -
09/03:25am 29.9 - - - - WNW 11 - 6 - - 1007.7 -
09/03:00am 29.9 - - - - WNW 9 - 5 - 1007.0 1007.8 -
09/02:30am 30.0 - - - - WNW 9 - 5 - 1007.0 - -
09/02:25am 29.9 - - - - WNW 11 - 6 - - 1007.7 -
09/02:00am 30.2 - - - - W 17 - 9 - 1007.0 1007.5 -
09/01:30am 30.0 - - - - W 19 - 10 - 1007.0 - -
09/01:25am 29.9 - - - - W 20 - 11 - - 1007.3 -
09/01:00am 30.2 - - - - W 24 - 13 - 1007.0 1007.2 -
09/12:30am 30.0 - - - - W 24 - 13 - 1007.0 - -
09/12:25am 30.0 - - - - W 22 - 12 - - 1007.6 -
09/12:00am 30.0 - - - - W 24 - 13 - 1008.0 1007.9 -
 
Date/Time
WST
Temp
°C
App
Temp
°C
Dew
Point
°C
Rel
Hum
%
Delta-T
°C
Wind Press
QNH
hPa
Press
MSL
hPa
Rain since
9am
mm
Dir  Spd
km/h
Gust
km/h
Spd
kts
Gust
kts
08/11:30pm 30.0 - - - - W 26 - 14 - 1008.0 - -
08/11:25pm 30.0 - - - - W 26 - 14 - - 1008.2 -
08/11:00pm 29.9 - - - - W 22 - 12 - 1008.0 1008.7 -
08/10:30pm 30.0 - - - - WNW 22 - 12 - 1009.0 - -
08/10:25pm 30.1 - - - - WNW 24 - 13 - - 1008.8 -
08/10:00pm 30.1 - - - - W 19 - 10 - 1009.0 1009.3 -
08/09:30pm 30.0 - - - - WNW 17 - 9 - 1009.0 - -
08/09:25pm 30.3 - - - - WNW 17 - 9 - - 1009.4 -
08/09:00pm 30.2 - - - - WNW 13 - 7 - 1009.0 1009.6 -
08/08:30pm 30.0 - - - - W 11 - 6 - 1009.0 - -
08/08:25pm 30.2 - - - - W 11 - 6 - - 1009.6 -
08/08:00pm 30.4 - - - - W 15 - 8 - 1009.0 1009.4 -
08/07:30pm 30.0 - - - - W 9 - 5 - 1009.0 - -
08/07:25pm 30.6 - - - - W 11 - 6 - - 1009.8 -
08/07:00pm 30.3 - - - - W 20 - 11 - 1009.0 1009.0 -
08/06:30pm 31.0 - - - - W 17 - 9 - 1008.0 - -
08/06:25pm 30.8 - - - - W 17 - 9 - - 1009.0 -
08/06:00pm 30.5 - - - - W 20 - 11 - 1008.0 1008.5 -
08/05:30pm 31.0 - - - - W 24 - 13 - 1007.0 - -
08/05:25pm 30.6 - - - - W 24 - 13 - - 1007.7 -
08/05:00pm 30.6 - - - - W 28 32 15 17 1007.1 1007.0 -
08/04:30pm 31.0 - - - - W 28 - 15 - 1006.0 - -
08/04:25pm 30.8 - - - - W 28 - 15 - - 1006.6 -
08/04:00pm 31.2 - - - - W 26 - 14 - 1006.0 1006.7 -
08/03:30pm 31.0 - - - - W 26 - 14 - 1006.0 - -
08/03:25pm 30.9 - - - - W 28 - 15 - - 1006.7 -
08/03:00pm 30.8 - - - - W 28 - 15 - 1006.0 1006.7 -
08/02:30pm 31.0 - - - - W 26 - 14 - 1007.0 - -
08/02:25pm 31.0 - - - - W 26 - 14 - - 1007.3 -
08/02:00pm 31.0 - - - - W 26 - 14 - 1007.0 1007.6 -
08/01:30pm 31.0 - - - - W 26 - 14 - 1008.0 - -
08/01:25pm 31.0 - - - - W 26 - 14 - - 1008.0 -
08/01:00pm 30.9 - - - - W 26 - 14 - 1008.0 1008.3 -
08/12:30pm 31.0 - - - - W 24 - 13 - 1008.0 - -
08/12:25pm 31.0 - - - - W 24 - 13 - - 1008.6 -
08/12:00pm 31.0 - - - - W 22 - 12 - 1009.0 1008.9 -
08/11:30am 31.0 - - - - W 24 - 13 - 1009.0 - -
08/11:25am 30.7 - - - - W 24 - 13 - - 1009.4 -
08/11:00am 30.7 - - - - W 22 - 12 - 1009.0 1009.5 -
08/10:30am 31.0 - - - - W 20 - 11 - 1010.0 - -
08/10:25am 30.6 - - - - W 19 - 10 - - 1009.9 -
08/10:00am 30.6 - - - - W 17 - 9 - 1010.0 1010.1 -
08/09:30am 31.0 - - - - W 17 - 9 - 1010.0 - -
08/09:25am 30.8 - - - - W 17 - 9 - - 1010.2 -
08/09:00am 30.7 - - - - WSW 17 - 9 - 1010.0 1010.1 -
08/08:30am 30.0 - - - - WSW 19 - 10 - 1010.0 - -
08/08:25am 30.5 - - - - WSW 19 - 10 - - 1009.8 -
08/08:00am 30.4 - - - - WSW 19 22 10 12 1009.7 1009.6 -
08/07:30am 30.0 - - - - WSW 20 - 11 - 1009.0 - -
08/07:25am 30.4 - - - - W 20 - 11 - - 1009.5 -
08/07:00am 30.3 - - - - W 22 - 12 - 1009.0 1009.2 -
08/06:30am 30.0 - - - - WSW 24 - 13 - 1008.0 - -
08/06:25am 30.1 - - - - WSW 24 - 13 - - 1008.7 -
08/06:00am 30.1 - - - - WSW 20 - 11 - 1008.0 1008.6 -
08/05:30am 30.0 - - - - WSW 22 - 12 - 1008.0 - -
08/05:25am 30.2 - - - - WSW 22 - 12 - - 1008.4 -
08/05:00am 30.1 - - - - WSW 20 - 11 - 1008.0 1008.1 -
08/04:30am 30.0 - - - - W 20 - 11 - 1007.0 - -
08/04:25am 29.9 - - - - WSW 20 - 11 - - 1007.7 -
08/04:00am 30.2 - - - - W 20 - 11 - 1007.0 1007.5 -
08/03:30am 30.0 - - - - W 20 - 11 - 1007.0 - -
08/03:25am 30.1 - - - - W 20 - 11 - - 1007.3 -
08/03:00am 30.1 - - - - W 24 - 13 - 1007.0 1007.4 -
08/02:30am 30.0 - - - - W 22 - 12 - 1007.0 - -
08/02:25am 30.2 - - - - W 22 - 12 - - 1007.3 -
08/02:00am 30.3 - - - - WSW 24 - 13 - 1007.0 1007.4 -
08/01:30am 30.0 - - - - WSW 20 - 11 - 1007.0 - -
08/01:25am 30.5 - - - - WSW 20 - 11 - - 1007.7 -
08/01:00am 30.4 - - - - WSW 24 - 13 - 1008.0 1007.9 -
08/12:30am 31.0 - - - - WSW 24 - 13 - 1008.0 - -
08/12:25am 30.5 - - - - WSW 24 - 13 - - 1008.4 -
08/12:00am 30.5 - - - - WSW 26 - 14 - 1008.0 1008.6 -
 
Date/Time
WST
Temp
°C
App
Temp
°C
Dew
Point
°C
Rel
Hum
%
Delta-T
°C
Wind Press
QNH
hPa
Press
MSL
hPa
Rain since
9am
mm
Dir  Spd
km/h
Gust
km/h
Spd
kts
Gust
kts
07/11:30pm 31.0 - - - - W 28 - 15 - 1008.0 - -
07/11:25pm 30.8 - - - - WSW 30 - 16 - - 1008.5 -
07/11:00pm 30.6 - - - - WSW 30 - 16 - 1008.0 1008.5 -
07/10:30pm 31.0 - - - - W 32 - 17 - 1008.0 - -
07/10:25pm 30.6 - - - - W 32 - 17 - - 1008.7 -
07/10:00pm 30.8 - - - - W 32 37 17 20 1008.9 1008.8 -
07/09:30pm 31.0 - - - - W 33 - 18 - 1008.0 - -
07/09:25pm 30.6 - - - - W 32 - 17 - - 1008.8 -
07/09:00pm 30.7 - - - - W 33 - 18 - 1008.0 1008.5 -
07/08:30pm 31.0 - - - - W 33 - 18 - 1008.0 - -
07/08:25pm 30.8 - - - - W 35 - 19 - - 1008.3 -
07/08:00pm 30.6 - - - - W 33 - 18 - 1008.0 1008.2 -
07/07:30pm 31.0 - - - - W 33 - 18 - 1008.0 - -
07/07:25pm 30.8 - - - - W 33 - 18 - - 1007.9 -
07/07:00pm 30.9 - - - - W 32 - 17 - 1007.0 1007.7 -
07/06:30pm 31.0 - - - - W 32 - 17 - 1007.0 - -
07/06:25pm 30.7 - - - - W 32 - 17 - - 1007.5 -
07/06:00pm 30.7 - - - - W 32 - 17 - 1007.0 1007.2 -
07/05:30pm 31.0 - - - - W 32 - 17 - 1007.0 - -
07/05:25pm 30.7 - - - - W 32 - 17 - - 1007.1 -
07/05:00pm 30.6 - - - - W 30 - 16 - 1007.0 1007.0 -
07/04:30pm 31.0 - - - - W 30 - 16 - 1007.0 - -
07/04:25pm 30.6 - - - - W 28 - 15 - - 1006.9 -
07/04:00pm 30.8 - - - - W 26 - 14 - 1007.0 1006.9 -
07/03:30pm 31.0 - - - - W 26 - 14 - 1007.0 - -
07/03:25pm 30.5 - - - - W 26 - 14 - - 1007.1 -
07/03:00pm 30.4 - - - - W 26 - 14 - 1007.0 1007.2 -
07/02:30pm 31.0 - - - - W 24 - 13 - 1007.0 - -
07/02:25pm 30.9 - - - - W 24 - 13 - - 1007.3 -
07/02:00pm 30.6 - - - - WSW 24 - 13 - 1007.0 1007.6 -

Other formats

Comma delimited format used in spreadsheet applications
http://www.bom.gov.au/fwo/IDW60801/IDW60801.94103.axf

JavaScript Object Notation format (JSON) in row-major order
http://www.bom.gov.au/fwo/IDW60801/IDW60801.94103.json

Data quality

Most of these data are generated automatically and are frequently updated. Quality checks on data are not normally performed. It is possible for incorrect values to appear. Refer to information at About Latest Weather Observations and please check the disclaimer before using these data.